createdAt,value
2018-12-02T00:01:00.806Z,99871.47
2018-12-02T00:03:29.477Z,99863.39
2018-12-02T00:05:58.065Z,99862.37
2018-12-02T00:08:26.699Z,99854.95
2018-12-02T00:10:55.376Z,99859.19
2018-12-02T00:13:24.048Z,99861.50
2018-12-02T00:15:54.517Z,99859.71
2018-12-02T00:18:23.661Z,99858.89
2018-12-02T00:20:52.273Z,99854.77
2018-12-02T00:23:20.998Z,99851.41
2018-12-02T00:25:49.589Z,99847.45
2018-12-02T00:28:18.171Z,99843.77
2018-12-02T00:30:47.674Z,99850.64
2018-12-02T00:33:16.328Z,99845.36
2018-12-02T00:35:45.014Z,99850.08
2018-12-02T00:38:14.374Z,99835.26
2018-12-02T00:40:42.952Z,99839.50
2018-12-02T00:43:11.654Z,99833.16
2018-12-02T00:45:40.429Z,99839.48
2018-12-02T00:48:10.377Z,99838.05
2018-12-02T00:50:38.957Z,99839.98
2018-12-02T00:53:09.671Z,99839.32
2018-12-02T00:55:39.967Z,99830.97
2018-12-02T00:58:08.757Z,99824.52
2018-12-02T01:00:37.902Z,99822.24
2018-12-02T01:03:08.316Z,99814.52
2018-12-02T01:05:37.016Z,99816.77
2018-12-02T01:08:06.962Z,99808.38
2018-12-02T01:10:36.040Z,99807.76
2018-12-02T01:13:05.325Z,99803.94
2018-12-02T01:15:34.712Z,99803.27
2018-12-02T01:18:03.543Z,99797.34
2018-12-02T01:20:32.956Z,99792.07
2018-12-02T01:23:01.632Z,99796.03
2018-12-02T01:25:30.641Z,99783.52
2018-12-02T01:27:59.216Z,99794.09
2018-12-02T01:30:28.010Z,99789.16
2018-12-02T01:32:56.845Z,99789.82
2018-12-02T01:35:25.528Z,99797.41
2018-12-02T01:37:54.409Z,99784.77
2018-12-02T01:40:24.245Z,99781.97
2018-12-02T01:42:53.856Z,99778.19
2018-12-02T01:45:23.656Z,99776.22
2018-12-02T01:47:53.041Z,99777.24
2018-12-02T01:50:23.724Z,99776.22
2018-12-02T01:52:53.441Z,99777.53
2018-12-02T01:55:22.220Z,99774.77
2018-12-02T01:57:50.962Z,99772.63
2018-12-02T02:00:21.973Z,99772.59
2018-12-02T02:02:51.061Z,99767.32
2018-12-02T02:05:20.715Z,99762.72
2018-12-02T02:07:49.563Z,99757.11
2018-12-02T02:10:20.337Z,99759.75
2018-12-02T02:12:49.401Z,99758.44
2018-12-02T02:15:19.232Z,99760.03
2018-12-02T02:17:48.448Z,99757.23
2018-12-02T02:20:18.922Z,99751.26
2018-12-02T02:22:48.477Z,99750.77
2018-12-02T02:25:18.309Z,99748.95
2018-12-02T02:27:51.154Z,99744.82
2018-12-02T02:30:21.757Z,99741.98
2018-12-02T02:32:50.444Z,99741.48
2018-12-02T02:35:21.023Z,99729.63
2018-12-02T02:37:50.909Z,99724.30
2018-12-02T02:40:22.832Z,99721.95
2018-12-02T02:42:51.804Z,99713.52
2018-12-02T02:45:20.818Z,99708.40
2018-12-02T02:47:49.480Z,99702.47
2018-12-02T02:50:22.031Z,99702.76
2018-12-02T02:52:55.806Z,99693.86
2018-12-02T02:55:24.417Z,99694.19
2018-12-02T02:57:53.110Z,99698.91
2018-12-02T03:00:22.882Z,99698.41
2018-12-02T03:02:51.691Z,99703.00
2018-12-02T03:05:20.569Z,99701.97
2018-12-02T03:07:49.260Z,99704.77
2018-12-02T03:13:09.429Z,99714.55
2018-12-02T03:15:38.097Z,99710.71
2018-12-02T03:18:07.201Z,99713.83
2018-12-02T03:20:35.996Z,99712.50
2018-12-02T03:23:05.101Z,99710.84
2018-12-02T03:25:33.918Z,99707.50
2018-12-02T03:28:02.682Z,99712.27
2018-12-02T03:30:31.481Z,99712.24
2018-12-02T03:33:00.062Z,99713.56
2018-12-02T03:35:28.687Z,99701.56
2018-12-02T03:37:57.545Z,99707.67
2018-12-02T03:40:27.637Z,99710.95
2018-12-02T03:42:56.520Z,99713.97
2018-12-02T03:45:26.278Z,99709.86
2018-12-02T03:47:54.857Z,99709.38
2018-12-02T03:50:24.390Z,99713.50
2018-12-02T03:52:53.344Z,99711.09
2018-12-02T03:55:22.022Z,99711.05
2018-12-02T03:57:50.718Z,99712.34
2018-12-02T04:00:20.200Z,99709.70
2018-12-02T04:02:49.646Z,99696.51
2018-12-02T04:05:19.551Z,99696.51
2018-12-02T04:07:48.153Z,99698.61
2018-12-02T04:10:17.724Z,99693.94
2018-12-02T04:12:47.305Z,99686.88
2018-12-02T04:15:17.779Z,99681.55
2018-12-02T04:17:47.181Z,99680.81
2018-12-02T04:20:17.066Z,99682.75
2018-12-02T04:22:46.869Z,99681.70
2018-12-02T04:25:17.189Z,99686.95
2018-12-02T04:27:46.463Z,99686.89
2018-12-02T04:30:18.663Z,99671.61
2018-12-02T04:32:49.638Z,99667.49
2018-12-02T04:35:23.519Z,99663.22
2018-12-02T04:37:53.937Z,99657.29
2018-12-02T04:40:23.453Z,99658.85
2018-12-02T04:42:53.470Z,99654.24
2018-12-02T04:45:24.201Z,99644.50
2018-12-02T04:47:54.081Z,99643.98
2018-12-02T04:50:24.006Z,99637.66
2018-12-02T04:52:53.409Z,99643.89
2018-12-02T04:55:23.277Z,99640.88
2018-12-02T04:57:53.651Z,99635.93
2018-12-02T05:00:23.473Z,99630.83
2018-12-02T05:02:53.212Z,99626.34
2018-12-02T05:05:25.289Z,99627.56
2018-12-02T05:07:55.037Z,99623.98
2018-12-02T05:10:24.112Z,99613.33
2018-12-02T05:12:54.377Z,99612.57
2018-12-02T05:15:23.846Z,99607.31
2018-12-02T05:17:53.046Z,99608.08
2018-12-02T05:20:22.666Z,99596.08
2018-12-02T05:22:52.552Z,99602.16
2018-12-02T05:25:22.856Z,99595.20
2018-12-02T05:27:52.122Z,99591.14
2018-12-02T05:30:22.202Z,99596.17
2018-12-02T05:32:52.214Z,99601.33
2018-12-02T05:35:21.514Z,99597.69
2018-12-02T05:37:51.596Z,99599.91
2018-12-02T05:40:23.764Z,99595.64
2018-12-02T05:42:54.275Z,99596.28
2018-12-02T05:45:24.171Z,99591.52
2018-12-02T05:47:54.293Z,99591.91
2018-12-02T05:50:25.187Z,99582.05
2018-12-02T05:52:57.086Z,99569.20
2018-12-02T05:55:30.994Z,99580.00
2018-12-02T05:58:00.979Z,99569.16
2018-12-02T06:00:31.421Z,99572.77
2018-12-02T06:03:00.709Z,99573.40
2018-12-02T06:05:30.966Z,99564.16
2018-12-02T06:08:00.635Z,99568.38
2018-12-02T06:10:29.752Z,99570.03
2018-12-02T06:12:59.072Z,99560.85
2018-12-02T06:15:28.580Z,99558.23
2018-12-02T06:17:58.516Z,99557.07
2018-12-02T06:20:27.796Z,99547.73
2018-12-02T06:22:58.679Z,99556.39
2018-12-02T06:25:28.290Z,99555.84
2018-12-02T06:27:57.678Z,99549.69
2018-12-02T06:30:28.653Z,99551.34
2018-12-02T06:32:58.800Z,99546.02
2018-12-02T06:35:27.976Z,99540.99
2018-12-02T06:37:57.824Z,99534.70
2018-12-02T06:40:28.646Z,99533.20
2018-12-02T06:42:58.041Z,99532.20
2018-12-02T06:45:28.667Z,99532.47
2018-12-02T06:47:58.466Z,99541.65
2018-12-02T06:50:28.840Z,99548.95
2018-12-02T06:52:58.400Z,99537.63
2018-12-02T06:55:41.713Z,99544.22
2018-12-02T06:58:32.565Z,99528.89
2018-12-02T07:01:17.975Z,99526.45
2018-12-02T07:03:58.937Z,99525.02
2018-12-02T07:06:28.284Z,99525.91
2018-12-02T07:08:58.004Z,99517.53
2018-12-02T07:11:27.886Z,99506.30
2018-12-02T07:13:57.786Z,99504.91
2018-12-02T07:16:26.973Z,99501.83
2018-12-02T07:18:57.958Z,99501.73
2018-12-02T07:21:29.002Z,99506.23
2018-12-02T07:23:59.840Z,99510.36
2018-12-02T07:26:29.925Z,99496.27
2018-12-02T07:28:59.261Z,99491.38
2018-12-02T07:31:29.459Z,99490.89
2018-12-02T07:33:59.389Z,99484.89
2018-12-02T07:36:29.411Z,99475.89
2018-12-02T07:39:15.425Z,99474.48
2018-12-02T07:41:44.940Z,99470.12
2018-12-02T07:44:14.833Z,99468.75
2018-12-02T07:46:44.114Z,99468.51
2018-12-02T07:49:13.277Z,99469.98
2018-12-02T07:51:42.537Z,99479.98
2018-12-02T07:54:11.861Z,99475.08
2018-12-02T07:56:41.761Z,99472.95
2018-12-02T07:59:11.449Z,99481.21
2018-12-02T08:01:40.688Z,99467.73
2018-12-02T08:04:09.879Z,99482.86
2018-12-02T08:06:39.501Z,99469.38
2018-12-02T08:09:08.799Z,99462.59
2018-12-02T08:11:38.225Z,99454.25
2018-12-02T08:14:08.519Z,99443.89
2018-12-02T08:16:37.804Z,99433.87
2018-12-02T08:19:07.612Z,99426.67
2018-12-02T08:21:37.432Z,99430.17
2018-12-02T08:24:06.982Z,99426.59
2018-12-02T08:26:36.988Z,99418.23
2018-12-02T08:29:06.302Z,99413.32
2018-12-02T08:31:35.709Z,99420.06
2018-12-02T08:34:05.321Z,99408.21
2018-12-02T08:36:35.293Z,99409.36
2018-12-02T08:39:05.033Z,99417.91
2018-12-02T08:41:34.768Z,99412.01
2018-12-02T08:44:04.556Z,99398.02
2018-12-02T08:46:33.309Z,99390.76
2018-12-02T08:49:01.865Z,99400.30
2018-12-02T08:51:30.543Z,99402.45
2018-12-02T08:53:59.157Z,99404.73
2018-12-02T08:56:28.453Z,99401.30
2018-12-02T08:58:57.014Z,99403.09
2018-12-02T09:01:26.065Z,99407.05
2018-12-02T09:03:54.688Z,99394.52
2018-12-02T09:06:23.277Z,99394.16
2018-12-02T09:08:52.013Z,99391.97
2018-12-02T09:11:20.705Z,99404.41
2018-12-02T09:13:49.919Z,99398.18
2018-12-02T09:16:19.104Z,99398.91
2018-12-02T09:18:48.348Z,99399.37
2018-12-02T09:21:17.055Z,99395.38
2018-12-02T09:23:47.460Z,99406.56
2018-12-02T09:26:14.488Z,99403.92
2018-12-02T09:28:43.281Z,99412.48
2018-12-02T09:31:11.926Z,99405.02
2018-12-02T09:33:40.564Z,99402.19
2018-12-02T09:36:09.189Z,99394.84
2018-12-02T09:38:37.796Z,99392.73
2018-12-02T09:41:06.910Z,99380.81
2018-12-02T09:43:35.578Z,99371.13
2018-12-02T09:46:04.312Z,99372.33
2018-12-02T09:48:32.973Z,99364.95
2018-12-02T09:51:01.674Z,99358.23
2018-12-02T09:53:30.729Z,99344.06
2018-12-02T09:55:59.414Z,99331.56
2018-12-02T09:58:29.985Z,99325.34
2018-12-02T10:01:00.564Z,99323.80
2018-12-02T10:03:29.413Z,99315.25
2018-12-02T10:05:58.018Z,99308.97
2018-12-02T10:08:26.824Z,99290.36
2018-12-02T10:10:55.489Z,99297.27
2018-12-02T10:13:24.584Z,99285.02
2018-12-02T10:15:54.047Z,99276.53
2018-12-02T10:18:22.677Z,99282.45
2018-12-02T10:20:51.404Z,99262.51
2018-12-02T10:23:20.143Z,99252.83
2018-12-02T10:25:48.909Z,99256.11
2018-12-02T10:28:17.460Z,99246.37
2018-12-02T10:30:46.373Z,99251.89
2018-12-02T10:33:14.938Z,99242.97
2018-12-02T10:35:43.718Z,99245.41
2018-12-02T10:38:12.341Z,99244.52
2018-12-02T10:40:40.959Z,99237.14
2018-12-02T10:43:09.546Z,99242.03
2018-12-02T10:45:38.451Z,99225.80
2018-12-02T10:48:10.177Z,99214.70
2018-12-02T10:50:38.873Z,99215.84
2018-12-02T10:53:11.971Z,99215.65
2018-12-02T10:55:46.972Z,99206.91
2018-12-02T10:58:17.553Z,99209.05
2018-12-02T11:00:51.824Z,99209.98
2018-12-02T11:03:20.562Z,99200.80
2018-12-02T11:05:49.928Z,99189.83
2018-12-02T11:08:18.597Z,99183.03
2018-12-02T11:10:47.229Z,99191.99
2018-12-02T11:13:16.508Z,99173.92
2018-12-02T11:15:45.819Z,99177.70
2018-12-02T11:18:15.145Z,99179.93
2018-12-02T11:20:44.729Z,99182.16
2018-12-02T11:23:13.415Z,99172.02
2018-12-02T11:25:42.159Z,99171.52
2018-12-02T11:28:11.363Z,99159.69
2018-12-02T11:30:40.549Z,99153.90
2018-12-02T11:33:09.751Z,99151.06
2018-12-02T11:35:38.434Z,99156.73
2018-12-02T11:38:08.218Z,99167.20
2018-12-02T11:40:37.804Z,99157.75
2018-12-02T11:43:07.655Z,99147.25
2018-12-02T11:45:36.482Z,99136.67
2018-12-02T11:48:06.430Z,99123.02
2018-12-02T11:50:35.401Z,99121.53
2018-12-02T11:53:04.046Z,99127.02
2018-12-02T11:55:33.265Z,99114.49
2018-12-02T11:58:01.985Z,99112.86
2018-12-02T12:00:31.778Z,99102.09
2018-12-02T12:03:00.713Z,99101.78
2018-12-02T12:05:29.609Z,99084.83
2018-12-02T12:07:58.556Z,99094.47
2018-12-02T12:10:28.342Z,99090.94
2018-12-02T12:12:58.804Z,99095.48
2018-12-02T12:15:29.202Z,99099.14
2018-12-02T12:17:58.435Z,99089.73
2018-12-02T12:20:29.067Z,99086.84
2018-12-02T12:22:57.818Z,99075.14
2018-12-02T12:25:26.868Z,99087.86
2018-12-02T12:27:56.679Z,99071.92
2018-12-02T12:30:26.837Z,99074.06
2018-12-02T12:32:55.661Z,99077.02
2018-12-02T12:35:25.825Z,99070.33
2018-12-02T12:37:54.689Z,99055.98
2018-12-02T12:40:32.201Z,99051.59
2018-12-02T12:43:03.229Z,99051.94
2018-12-02T12:45:31.873Z,99057.23
2018-12-02T12:48:00.521Z,99051.27
2018-12-02T12:50:29.277Z,99048.56
2018-12-02T12:52:57.919Z,99032.19
2018-12-02T12:55:26.484Z,99035.61
2018-12-02T12:57:55.124Z,99033.08
2018-12-02T13:00:24.358Z,99038.17
2018-12-02T13:02:53.393Z,99028.53
2018-12-02T13:05:25.322Z,99019.04
2018-12-02T13:07:54.980Z,99029.38
2018-12-02T13:10:23.657Z,99023.70
2018-12-02T13:12:52.718Z,99027.11
2018-12-02T13:15:22.600Z,99017.00
2018-12-02T13:17:54.796Z,99017.27
2018-12-02T13:20:23.958Z,99004.34
2018-12-02T13:22:52.613Z,99003.48
2018-12-02T13:25:21.241Z,99000.95
2018-12-02T13:27:49.965Z,99011.78
2018-12-02T13:30:19.772Z,99006.77
2018-12-02T13:32:50.642Z,99011.23
2018-12-02T13:35:19.283Z,99013.38
2018-12-02T13:37:48.126Z,99004.30
2018-12-02T13:40:18.292Z,99010.83
2018-12-02T13:42:55.237Z,99013.42
2018-12-02T13:45:25.243Z,99009.56
2018-12-02T13:47:53.997Z,99001.63
2018-12-02T13:50:22.901Z,98995.46
2018-12-02T13:52:53.774Z,98990.48
2018-12-02T13:55:26.049Z,98976.52
2018-12-02T13:57:54.952Z,98976.22
2018-12-02T14:00:25.825Z,98985.78
2018-12-02T14:02:58.670Z,98978.80
2018-12-02T14:05:27.417Z,98985.61
2018-12-02T14:07:56.003Z,98984.65
2018-12-02T14:10:25.048Z,98978.98
2018-12-02T14:12:56.960Z,98974.17
2018-12-02T14:16:35.417Z,98976.88
2018-12-02T14:19:07.728Z,98970.95
2018-12-02T14:21:36.551Z,98963.91
2018-12-02T14:24:07.370Z,98964.18
2018-12-02T14:26:36.968Z,98958.89
2018-12-02T14:29:16.424Z,98950.51
2018-12-02T14:31:50.250Z,98950.51
2018-12-02T14:34:18.937Z,98941.84
2018-12-02T14:36:48.241Z,98941.58
2018-12-02T14:39:16.897Z,98941.27
2018-12-02T14:41:46.230Z,98945.42
2018-12-02T14:44:14.795Z,98941.97
2018-12-02T14:46:44.211Z,98946.79
2018-12-02T14:49:12.949Z,98954.28
2018-12-02T14:51:41.581Z,98959.45
2018-12-02T14:54:10.696Z,98956.66
2018-12-02T14:56:39.593Z,98957.98
2018-12-02T14:59:08.488Z,98960.00
2018-12-02T15:01:37.161Z,98957.36
2018-12-02T15:04:06.987Z,98946.79
2018-12-02T15:06:35.624Z,98950.83
2018-12-02T15:09:06.396Z,98945.90
2018-12-02T15:11:35.267Z,98946.98
2018-12-02T15:14:03.876Z,98952.61
2018-12-02T15:16:32.528Z,98939.05
2018-12-02T15:19:01.908Z,98946.16
2018-12-02T15:21:30.586Z,98937.85
2018-12-02T15:23:59.229Z,98938.58
2018-12-02T15:26:28.261Z,98937.27
2018-12-02T15:28:56.897Z,98935.93
2018-12-02T15:31:26.242Z,98934.78
2018-12-02T15:33:54.973Z,98932.56
2018-12-02T15:36:23.713Z,98924.67
2018-12-02T15:38:52.288Z,98926.91
2018-12-02T15:41:21.192Z,98916.80
2018-12-02T15:43:49.761Z,98927.70
2018-12-02T15:46:18.345Z,98923.48
2018-12-02T15:48:47.639Z,98924.50
2018-12-02T15:51:16.472Z,98922.27
2018-12-02T15:53:45.142Z,98916.70
2018-12-02T15:56:13.764Z,98917.33
2018-12-02T15:58:42.624Z,98914.03
2018-12-02T16:01:11.396Z,98916.48
2018-12-02T16:03:40.352Z,98903.48
2018-12-02T16:06:09.025Z,98910.39
2018-12-02T16:08:37.592Z,98898.66
2018-12-02T16:11:06.493Z,98902.80
2018-12-02T16:13:35.201Z,98909.20
2018-12-02T16:16:03.777Z,98899.12
2018-12-02T16:18:32.397Z,98887.28
2018-12-02T16:21:01.052Z,98885.28
2018-12-02T16:23:29.635Z,98881.00
2018-12-02T16:25:58.562Z,98879.38
2018-12-02T16:28:27.681Z,98877.02
2018-12-02T16:30:56.646Z,98873.22
2018-12-02T16:33:25.570Z,98882.14
2018-12-02T16:35:54.226Z,98874.31
2018-12-02T16:38:22.882Z,98869.04
2018-12-02T16:40:51.477Z,98867.41
2018-12-02T16:43:20.209Z,98867.22
2018-12-02T16:45:49.514Z,98870.98
2018-12-02T16:48:19.026Z,98864.70
2018-12-02T16:50:48.601Z,98860.08
2018-12-02T16:53:19.800Z,98859.92
2018-12-02T16:56:14.469Z,98858.17
2018-12-02T16:58:49.157Z,98862.31
2018-12-02T17:01:20.208Z,98851.77
2018-12-02T17:03:49.484Z,98852.89
2018-12-02T17:06:18.134Z,98837.89
2018-12-02T17:08:46.719Z,98835.06
2018-12-02T17:11:15.346Z,98835.06
2018-12-02T17:13:44.777Z,98830.06
2018-12-02T17:16:13.363Z,98831.22
2018-12-02T17:18:42.100Z,98828.77
2018-12-02T17:21:10.649Z,98816.59
2018-12-02T17:23:39.224Z,98825.83
2018-12-02T17:26:07.843Z,98828.11
2018-12-02T17:28:36.489Z,98818.69
2018-12-02T17:31:09.817Z,98819.75
2018-12-02T17:33:38.513Z,98819.52
2018-12-02T17:36:07.201Z,98815.05
2018-12-02T17:38:35.936Z,98815.01
2018-12-02T17:41:05.760Z,98811.98
2018-12-02T17:43:35.157Z,98819.91
2018-12-02T17:46:03.933Z,98813.11
2018-12-02T17:48:32.897Z,98806.63
2018-12-02T17:51:01.474Z,98809.08
2018-12-02T17:53:30.083Z,98816.02
2018-12-02T17:55:58.980Z,98808.41
2018-12-02T17:58:27.677Z,98817.27
2018-12-02T18:00:56.916Z,98810.78
2018-12-02T18:03:30.705Z,98804.49
2018-12-02T18:05:59.927Z,98818.03
2018-12-02T18:08:28.617Z,98812.37
2018-12-02T18:10:57.549Z,98816.13
2018-12-02T18:13:26.250Z,98811.94
2018-12-02T18:15:54.851Z,98820.59
2018-12-02T18:18:24.993Z,98821.36
2018-12-02T18:20:53.868Z,98812.63
2018-12-02T18:23:22.611Z,98818.44
2018-12-02T18:25:51.552Z,98819.52
2018-12-02T18:28:20.402Z,98815.67
2018-12-02T18:30:49.081Z,98811.77
2018-12-02T18:33:18.187Z,98811.77
2018-12-02T18:36:52.176Z,98809.75
2018-12-02T18:39:21.788Z,98817.67
2018-12-02T18:41:53.302Z,98818.48
2018-12-02T18:44:22.264Z,98812.56
2018-12-02T18:46:51.135Z,98820.48
2018-12-02T18:49:19.865Z,98815.97
2018-12-02T18:51:48.658Z,98815.38
2018-12-02T18:54:17.719Z,98814.00
2018-12-02T18:56:47.027Z,98816.44
2018-12-02T18:59:15.920Z,98814.00
2018-12-02T19:01:44.604Z,98817.26
2018-12-02T19:04:13.314Z,98815.23
2018-12-02T19:06:42.086Z,98814.20
2018-12-02T19:09:12.508Z,98817.66
2018-12-02T19:11:41.222Z,98808.41
2018-12-02T19:14:10.192Z,98806.08
2018-12-02T19:16:39.213Z,98811.36
2018-12-02T19:19:08.597Z,98808.09
2018-12-02T19:21:37.926Z,98797.64
2018-12-02T19:24:08.030Z,98807.20
2018-12-02T19:26:36.718Z,98802.11
2018-12-02T19:29:06.557Z,98806.77
2018-12-02T19:31:35.244Z,98798.40
2018-12-02T19:34:04.291Z,98800.34
2018-12-02T19:36:36.191Z,98801.71
2018-12-02T19:39:07.726Z,98791.95
2018-12-02T19:41:36.545Z,98791.65
2018-12-02T19:44:05.643Z,98795.61
2018-12-02T19:46:34.381Z,98797.13
2018-12-02T19:49:03.166Z,98795.50
2018-12-02T19:51:31.813Z,98798.84
2018-12-02T19:54:01.013Z,98796.52
2018-12-02T19:56:29.831Z,98801.19
2018-12-02T19:58:58.468Z,98794.80
2018-12-02T20:01:27.116Z,98794.09
2018-12-02T20:03:55.793Z,98791.34
2018-12-02T20:06:24.448Z,98787.88
2018-12-02T20:08:53.025Z,98789.91
2018-12-02T20:11:21.656Z,98791.54
2018-12-02T20:13:51.020Z,98789.01
2018-12-02T20:16:20.387Z,98787.69
2018-12-02T20:21:17.869Z,98783.22
2018-12-02T20:23:51.898Z,98773.86
2018-12-02T20:26:20.674Z,98783.61
2018-12-02T20:28:51.665Z,98772.94
2018-12-02T20:31:22.517Z,98769.08
2018-12-02T20:33:51.122Z,98778.22
2018-12-02T20:36:19.868Z,98776.90
2018-12-02T20:38:48.635Z,98769.14
2018-12-02T20:41:17.252Z,98777.06
2018-12-02T20:43:45.836Z,98772.48
2018-12-02T20:46:15.028Z,98767.96
2018-12-02T20:48:44.071Z,98763.38
2018-12-02T20:51:12.849Z,98760.44
2018-12-02T20:53:41.480Z,98765.21
2018-12-02T20:56:10.145Z,98765.10
2018-12-02T20:58:38.861Z,98762.15
2018-12-02T21:01:07.672Z,98764.09
2018-12-02T21:03:39.439Z,98758.41
2018-12-02T21:06:12.481Z,98764.84
2018-12-02T21:08:41.078Z,98763.38
2018-12-02T21:11:10.271Z,98753.02
2018-12-02T21:13:39.121Z,98753.22
2018-12-02T21:16:07.775Z,98742.09
2018-12-02T21:18:36.373Z,98750.13
2018-12-02T21:21:05.413Z,98749.95
2018-12-02T21:23:34.388Z,98746.52
2018-12-02T21:26:03.673Z,98740.42
2018-12-02T21:28:32.469Z,98743.57
2018-12-02T21:31:01.055Z,98747.67
2018-12-02T21:33:29.773Z,98739.16
2018-12-02T21:35:58.464Z,98735.89
2018-12-02T21:38:27.768Z,98735.80
2018-12-02T21:40:56.469Z,98730.16
2018-12-02T21:43:25.761Z,98730.97
2018-12-02T21:45:54.922Z,98731.98
2018-12-02T21:48:23.753Z,98724.56
2018-12-02T21:50:55.103Z,98727.57
2018-12-02T21:53:23.739Z,98724.31
2018-12-02T21:55:52.369Z,98727.42
2018-12-02T21:58:20.992Z,98724.58
2018-12-02T22:00:55.041Z,98727.22
2018-12-02T22:03:23.758Z,98733.31
2018-12-02T22:05:52.415Z,98729.35
2018-12-02T22:08:21.033Z,98731.48
2018-12-02T22:10:49.930Z,98724.58
2018-12-02T22:13:18.748Z,98725.19
2018-12-02T22:15:47.413Z,98724.78
2018-12-02T22:18:16.125Z,98722.03
2018-12-02T22:20:44.827Z,98718.56
2018-12-02T22:23:13.702Z,98719.58
2018-12-02T22:25:42.506Z,98717.75
2018-12-02T22:28:11.182Z,98717.95
2018-12-02T22:30:39.814Z,98729.00
2018-12-02T22:33:08.690Z,98724.67
2018-12-02T22:35:37.376Z,98726.30
2018-12-02T22:38:06.316Z,98722.95
2018-12-02T22:40:35.713Z,98719.59
2018-12-02T22:43:04.698Z,98724.38
2018-12-02T22:45:33.312Z,98715.48
2018-12-02T22:48:03.085Z,98717.24
2018-12-02T22:50:31.753Z,98705.95
2018-12-02T22:53:01.163Z,98710.23
2018-12-02T22:55:30.064Z,98707.69
2018-12-02T22:57:58.749Z,98705.55
2018-12-02T23:00:34.266Z,98711.45
2018-12-02T23:03:05.984Z,98702.64
2018-12-02T23:05:34.637Z,98699.80
2018-12-02T23:08:03.364Z,98705.02
2018-12-02T23:10:32.109Z,98692.92
2018-12-02T23:13:01.249Z,98699.63
2018-12-02T23:15:30.469Z,98700.20
2018-12-02T23:17:59.096Z,98693.22
2018-12-02T23:20:28.027Z,98694.34
2018-12-02T23:22:56.817Z,98695.90
2018-12-02T23:25:25.425Z,98694.17
2018-12-02T23:27:54.098Z,98692.64
2018-12-02T23:30:24.160Z,98701.73
2018-12-02T23:32:52.795Z,98698.67
2018-12-02T23:35:21.520Z,98697.45
2018-12-02T23:37:50.189Z,98692.57
2018-12-02T23:40:21.872Z,98686.77
2018-12-02T23:42:50.641Z,98699.72
2018-12-02T23:45:19.432Z,98698.39
2018-12-02T23:47:48.261Z,98694.42
2018-12-02T23:50:18.120Z,98698.50
2018-12-02T23:52:46.841Z,98702.59
2018-12-02T23:55:17.239Z,98700.15
2018-12-02T23:57:46.337Z,98691.91
